Time;durP1;ratioP1;P1;durP2;ratioP2;P2;SDS_P1;SDS_P2;PMS_P1;PMS_P2;Temp;Humidity;BMP_temperature;BMP_pressure;BME280_temperature;BME280_humidity;BME280_pressure;Samples;Min_cycle;Max_cycle;Signal;HPM_P1;HPM_P2
2021/12/28 00:00:12;;;;;;;;;;;8.10;99.90;;;;;;5055742;28;19912;-81
2021/12/28 00:02:39;;;;;;;;;;;8.10;99.90;;;;;;5056987;28;19974;-80
2021/12/28 00:05:04;;;;;;;;;;;8.00;99.90;;;;;;5072210;28;19995;-80
2021/12/28 00:07:30;;;;;;;;;;;7.90;99.90;;;;;;5055943;28;20012;-81
2021/12/28 00:09:55;;;;;;;;;;;7.90;99.90;;;;;;5056511;28;19924;-80
2021/12/28 00:12:22;;;;;;;;;;;7.70;99.90;;;;;;5055649;28;19912;-80
2021/12/28 00:15:03;;;;;;;;;;;7.70;99.90;;;;;;5056556;28;19962;-79
2021/12/28 00:20:13;;;;;;;;;;;7.70;99.90;;;;;;5056607;28;20224;-80
2021/12/28 00:22:39;;;;;;;;;;;7.70;99.90;;;;;;5056487;28;20669;-81
2021/12/28 00:25:05;;;;;;;;;;;7.80;99.90;;;;;;5056265;28;19909;-80
2021/12/28 00:27:31;;;;;;;;;;;7.80;99.90;;;;;;5055344;28;19916;-81
2021/12/28 00:29:57;;;;;;;;;;;7.80;99.90;;;;;;5055225;28;19912;-81
2021/12/28 00:32:22;;;;;;;;;;;7.80;99.90;;;;;;5071782;28;20222;-80
2021/12/28 00:34:48;;;;;;;;;;;7.80;99.90;;;;;;5071572;28;19909;-79
2021/12/28 00:37:14;;;;;;;;;;;7.80;99.90;;;;;;5056257;28;19913;-80
2021/12/28 00:39:39;;;;;;;;;;;7.80;99.90;;;;;;5056138;28;19913;-80
2021/12/28 00:42:06;;;;;;;;;;;7.80;99.90;;;;;;5056021;28;19913;-81
2021/12/28 00:44:32;;;;;;;;;;;7.80;99.90;;;;;;5055947;28;20300;-81
2021/12/28 00:46:57;;;;;;;;;;;7.80;99.90;;;;;;5055796;28;19916;-80
2021/12/28 00:49:23;;;;;;;;;;;7.80;99.90;;;;;;5056018;28;19909;-80
2021/12/28 00:51:50;;;;;;;;;;;7.80;99.90;;;;;;5055928;28;20189;-80
2021/12/28 00:54:15;;;;;;;;;;;7.80;99.90;;;;;;5054752;28;19909;-81
2021/12/28 00:56:41;;;;;;;;;;;7.80;99.90;;;;;;5055628;28;19912;-80
2021/12/28 00:59:08;;;;;;;;;;;7.80;99.90;;;;;;5071251;28;19963;-79
2021/12/28 01:01:33;;;;;;;;;;;7.70;99.90;;;;;;5071385;28;19917;-81
2021/12/28 01:03:59;;;;;;;;;;;7.70;99.90;;;;;;5055669;28;19913;-80
2021/12/28 01:06:24;;;;;;;;;;;7.70;99.90;;;;;;5071186;28;19916;-79
2021/12/28 01:08:50;;;;;;;;;;;7.80;99.90;;;;;;5071257;28;19951;-80
2021/12/28 01:11:16;;;;;;;;;;;7.80;99.90;;;;;;5055533;28;19916;-80
2021/12/28 01:13:41;;;;;;;;;;;7.70;99.90;;;;;;5071060;28;20224;-79
2021/12/28 01:16:08;;;;;;;;;;;7.70;99.90;;;;;;5055470;28;19908;-79
2021/12/28 01:18:34;;;;;;;;;;;7.70;99.90;;;;;;5071086;28;19915;-80
2021/12/28 01:20:59;;;;;;;;;;;7.70;99.90;;;;;;5055355;28;19917;-80
2021/12/28 01:23:26;;;;;;;;;;;7.70;99.90;;;;;;5055251;28;19912;-82
2021/12/28 01:25:52;;;;;;;;;;;7.70;99.90;;;;;;5055420;28;20009;-80
2021/12/28 01:28:17;;;;;;;;;;;7.70;99.90;;;;;;5055388;28;20311;-80
2021/12/28 01:30:43;;;;;;;;;;;7.70;99.90;;;;;;5070845;28;19909;-76
2021/12/28 01:33:09;;;;;;;;;;;7.60;99.90;;;;;;5054298;28;19995;-79
2021/12/28 01:35:35;;;;;;;;;;;7.60;99.90;;;;;;5053307;28;19928;-78
2021/12/28 01:38:00;;;;;;;;;;;7.60;99.90;;;;;;5054056;28;19952;-80
2021/12/28 01:40:28;;;;;;;;;;;7.60;99.90;;;;;;5055030;28;20276;-78
2021/12/28 01:42:56;;;;;;;;;;;7.60;99.90;;;;;;5055201;28;19912;-80
2021/12/28 01:45:54;;;;;;;;;;;7.70;99.90;;;;;;5054860;28;19960;-79
2021/12/28 01:48:20;;;;;;;;;;;7.70;99.90;;;;;;4993723;28;19917;-76
2021/12/28 01:50:46;;;;;;;;;;;7.70;99.90;;;;;;4993606;28;19918;-79
2021/12/28 01:53:13;;;;;;;;;;;7.70;99.90;;;;;;4993579;28;19910;-80
2021/12/28 01:55:40;;;;;;;;;;;7.70;99.90;;;;;;4993604;28;20236;-80
2021/12/28 01:58:06;;;;;;;;;;;7.70;99.90;;;;;;4993567;28;19968;-80
2021/12/28 02:00:32;;;;;;;;;;;7.70;99.90;;;;;;4993636;28;20217;-81
2021/12/28 02:02:59;;;;;;;;;;;7.60;99.90;;;;;;4993609;28;19910;-79
2021/12/28 02:05:25;;;;;;;;;;;7.60;99.90;;;;;;4993687;28;19914;-79
2021/12/28 02:07:50;;;;;;;;;;;7.60;99.90;;;;;;4993605;28;19913;-79
2021/12/28 02:10:17;;;;;;;;;;;7.60;99.90;;;;;;4977322;28;19964;-77
2021/12/28 02:12:42;;;;;;;;;;;7.60;99.90;;;;;;4993520;28;19910;-80
2021/12/28 02:15:12;;;;;;;;;;;7.60;99.90;;;;;;4993612;28;20005;-79
2021/12/28 02:17:38;;;;;;;;;;;7.60;99.90;;;;;;4977185;28;19921;-81
2021/12/28 02:20:05;;;;;;;;;;;7.60;99.90;;;;;;4993699;28;19909;-80
2021/12/28 02:22:31;;;;;;;;;;;7.60;99.90;;;;;;4993571;28;20016;-78
2021/12/28 02:24:57;;;;;;;;;;;7.70;99.90;;;;;;5065672;28;20032;-80
2021/12/28 02:27:25;;;;;;;;;;;7.80;99.90;;;;;;5053930;28;19909;-80
2021/12/28 02:29:51;;;;;;;;;;;7.90;99.90;;;;;;5055159;28;20304;-79
2021/12/28 02:32:17;;;;;;;;;;;7.90;99.90;;;;;;5053823;28;19988;-80
2021/12/28 02:34:45;;;;;;;;;;;7.90;99.90;;;;;;5054793;28;19916;-79
2021/12/28 02:37:10;;;;;;;;;;;7.90;99.90;;;;;;5070373;28;20008;-80
2021/12/28 02:39:36;;;;;;;;;;;7.90;99.90;;;;;;5070394;28;20438;-78
2021/12/28 02:42:02;;;;;;;;;;;7.90;99.90;;;;;;5054510;28;19923;-80
2021/12/28 02:44:27;;;;;;;;;;;7.90;99.90;;;;;;5048305;28;19909;-80
2021/12/28 02:46:53;;;;;;;;;;;7.90;99.90;;;;;;5034521;28;19923;-80
2021/12/28 02:49:19;;;;;;;;;;;7.90;99.90;;;;;;5033548;28;19909;-80
2021/12/28 02:51:44;;;;;;;;;;;8.00;99.90;;;;;;5034623;28;20373;-80
2021/12/28 02:54:10;;;;;;;;;;;8.00;99.90;;;;;;5035927;28;19917;-79
2021/12/28 02:56:36;;;;;;;;;;;8.00;99.90;;;;;;5038248;28;19967;-81
2021/12/28 02:59:02;;;;;;;;;;;8.00;99.90;;;;;;5038227;28;19913;-79
2021/12/28 03:01:29;;;;;;;;;;;8.00;99.90;;;;;;5036838;28;19917;-79
2021/12/28 03:03:58;;;;;;;;;;;8.00;99.90;;;;;;5037981;28;19948;-79
2021/12/28 03:06:24;;;;;;;;;;;8.00;99.90;;;;;;5036872;28;19992;-80
2021/12/28 03:08:54;;;;;;;;;;;8.00;99.90;;;;;;5036878;28;20004;-80
2021/12/28 03:11:21;;;;;;;;;;;8.00;99.90;;;;;;5036844;28;20312;-79
2021/12/28 03:13:49;;;;;;;;;;;8.00;99.90;;;;;;5037751;28;19964;-76
2021/12/28 03:16:16;;;;;;;;;;;8.10;99.90;;;;;;5037860;28;19913;-80
2021/12/28 03:18:41;;;;;;;;;;;8.10;99.90;;;;;;5037556;28;19919;-79
2021/12/28 03:21:08;;;;;;;;;;;8.10;99.90;;;;;;5037749;28;20011;-79
2021/12/28 03:23:35;;;;;;;;;;;8.10;99.90;;;;;;5037544;28;19913;-80
2021/12/28 03:26:01;;;;;;;;;;;8.10;99.90;;;;;;5037713;28;19916;-79
2021/12/28 03:28:28;;;;;;;;;;;8.10;99.90;;;;;;5037525;28;19921;-76
2021/12/28 03:30:55;;;;;;;;;;;8.20;99.90;;;;;;5037601;28;19909;-80
2021/12/28 03:33:22;;;;;;;;;;;8.10;99.90;;;;;;5036074;28;20304;-79
2021/12/28 03:35:49;;;;;;;;;;;8.20;99.90;;;;;;5054833;28;19916;-78
2021/12/28 03:38:15;;;;;;;;;;;8.20;99.90;;;;;;5072918;28;19915;-80
2021/12/28 03:40:41;;;;;;;;;;;8.30;99.90;;;;;;5056240;28;19912;-79
2021/12/28 03:43:07;;;;;;;;;;;8.20;99.90;;;;;;5057271;28;20271;-79
2021/12/28 03:45:33;;;;;;;;;;;8.20;99.90;;;;;;5056834;28;19974;-79
2021/12/28 03:47:58;;;;;;;;;;;8.20;99.90;;;;;;5055878;28;19924;-79
2021/12/28 03:50:25;;;;;;;;;;;8.30;99.90;;;;;;5056082;28;19913;-78
2021/12/28 03:52:52;;;;;;;;;;;8.30;99.90;;;;;;5056955;28;19913;-80
2021/12/28 03:55:19;;;;;;;;;;;8.40;99.90;;;;;;5057062;28;19919;-78
2021/12/28 03:57:44;;;;;;;;;;;8.30;99.90;;;;;;5072326;28;19909;-79
2021/12/28 04:00:11;;;;;;;;;;;8.30;99.90;;;;;;5056919;28;19909;-80
2021/12/28 04:02:37;;;;;;;;;;;8.30;99.90;;;;;;5072391;28;19956;-79
2021/12/28 04:05:02;;;;;;;;;;;8.40;99.90;;;;;;5040501;28;19979;-80
2021/12/28 04:07:29;;;;;;;;;;;8.30;99.90;;;;;;5035532;28;20380;-80
2021/12/28 04:12:21;;;;;;;;;;;8.30;99.90;;;;;;5036699;28;20001;-80
2021/12/28 04:14:47;;;;;;;;;;;8.30;99.90;;;;;;5035762;28;19924;-76
2021/12/28 04:17:13;;;;;;;;;;;8.20;99.90;;;;;;5035504;28;19914;-80
2021/12/28 04:19:38;;;;;;;;;;;8.30;99.90;;;;;;5036566;28;19963;-80
2021/12/28 04:22:04;;;;;;;;;;;8.30;99.90;;;;;;5035425;28;20347;-79
2021/12/28 04:24:30;;;;;;;;;;;8.30;99.90;;;;;;5035289;28;19909;-75
2021/12/28 04:26:56;;;;;;;;;;;8.30;99.90;;;;;;5035344;28;19917;-76
2021/12/28 04:29:21;;;;;;;;;;;8.30;99.90;;;;;;5036391;28;19913;-75
2021/12/28 04:31:47;;;;;;;;;;;8.30;99.90;;;;;;5035312;28;20008;-75
2021/12/28 04:34:12;;;;;;;;;;;8.30;99.90;;;;;;5041517;28;20366;-79
2021/12/28 04:36:39;;;;;;;;;;;8.30;99.90;;;;;;5056336;28;20003;-80
2021/12/28 04:39:05;;;;;;;;;;;8.30;99.90;;;;;;5071708;28;19995;-80
2021/12/28 04:41:31;;;;;;;;;;;8.30;99.90;;;;;;5071674;28;20063;-81
2021/12/28 04:44:00;;;;;;;;;;;8.40;99.90;;;;;;5055898;28;19956;-79
2021/12/28 04:46:26;;;;;;;;;;;8.30;99.90;;;;;;5071539;28;19966;-80
2021/12/28 04:48:51;;;;;;;;;;;8.30;99.90;;;;;;5071442;28;20292;-79
2021/12/28 04:51:17;;;;;;;;;;;8.30;99.90;;;;;;5071698;28;19916;-79
2021/12/28 04:53:43;;;;;;;;;;;8.30;99.90;;;;;;5055956;28;20311;-79
2021/12/28 04:56:08;;;;;;;;;;;8.30;99.90;;;;;;5055838;28;19920;-80
2021/12/28 04:58:34;;;;;;;;;;;8.30;99.90;;;;;;5055799;28;19935;-80
2021/12/28 05:01:00;;;;;;;;;;;8.30;99.90;;;;;;5071374;28;19920;-81
2021/12/28 05:03:25;;;;;;;;;;;8.30;99.90;;;;;;5053487;28;19913;-79
2021/12/28 05:05:51;;;;;;;;;;;8.30;99.90;;;;;;5034650;28;19944;-79
2021/12/28 05:08:19;;;;;;;;;;;8.40;99.90;;;;;;5035653;28;19916;-79
2021/12/28 05:10:44;;;;;;;;;;;8.40;99.90;;;;;;5035861;28;19909;-81
2021/12/28 05:13:10;;;;;;;;;;;8.30;99.90;;;;;;5035656;28;19920;-80
2021/12/28 05:15:36;;;;;;;;;;;8.30;99.90;;;;;;5034235;28;19956;-81
2021/12/28 05:18:02;;;;;;;;;;;8.30;99.90;;;;;;5035465;28;19913;-81
2021/12/28 05:20:28;;;;;;;;;;;8.30;99.90;;;;;;5035733;28;20375;-80
2021/12/28 05:22:54;;;;;;;;;;;8.40;99.90;;;;;;5034285;28;20004;-79
2021/12/28 05:25:20;;;;;;;;;;;8.30;99.90;;;;;;5035491;28;19963;-82
2021/12/28 05:27:45;;;;;;;;;;;8.30;99.90;;;;;;5035387;28;20000;-80
2021/12/28 05:30:11;;;;;;;;;;;8.30;99.90;;;;;;5035468;28;19913;-80
2021/12/28 05:32:37;;;;;;;;;;;8.30;99.90;;;;;;5035413;28;19913;-77
2021/12/28 05:35:03;;;;;;;;;;;8.30;99.90;;;;;;5043076;28;19932;-80
2021/12/28 05:37:29;;;;;;;;;;;8.30;99.90;;;;;;5050855;28;19913;-81
2021/12/28 05:39:54;;;;;;;;;;;8.40;99.90;;;;;;5035649;28;19917;-80
2021/12/28 05:42:20;;;;;;;;;;;8.40;99.90;;;;;;5035447;28;20304;-80
2021/12/28 05:44:46;;;;;;;;;;;8.40;99.90;;;;;;5050908;28;20397;-80
2021/12/28 05:47:11;;;;;;;;;;;8.40;99.90;;;;;;5035462;28;19920;-79
2021/12/28 05:49:37;;;;;;;;;;;8.40;99.90;;;;;;5035518;28;19952;-79
2021/12/28 05:52:03;;;;;;;;;;;8.40;99.90;;;;;;5035546;28;19913;-81
2021/12/28 05:54:28;;;;;;;;;;;8.30;99.90;;;;;;5035350;28;19931;-87
2021/12/28 05:56:54;;;;;;;;;;;8.40;99.90;;;;;;5050766;28;20300;-81
2021/12/28 05:59:19;;;;;;;;;;;8.40;99.90;;;;;;5035137;28;19933;-82
2021/12/28 06:01:45;;;;;;;;;;;8.40;99.90;;;;;;5035126;28;19924;-81
2021/12/28 06:04:11;;;;;;;;;;;8.40;99.90;;;;;;5050517;28;19966;-77
2021/12/28 06:06:37;;;;;;;;;;;8.40;99.90;;;;;;5050518;28;19916;-77
2021/12/28 06:09:03;;;;;;;;;;;8.40;99.90;;;;;;5035118;28;19909;-80
2021/12/28 06:11:29;;;;;;;;;;;8.40;99.90;;;;;;5035054;28;20005;-80
2021/12/28 06:13:54;;;;;;;;;;;8.40;99.90;;;;;;5034928;28;20015;-81
2021/12/28 06:16:20;;;;;;;;;;;8.50;99.90;;;;;;5050333;28;19939;-78
2021/12/28 06:18:45;;;;;;;;;;;8.50;99.90;;;;;;5050367;28;19917;-80
2021/12/28 06:21:11;;;;;;;;;;;8.50;99.90;;;;;;5035017;28;19924;-79
2021/12/28 06:23:37;;;;;;;;;;;8.50;99.90;;;;;;5050359;28;19913;-77
2021/12/28 06:26:02;;;;;;;;;;;8.40;99.90;;;;;;5050394;28;19988;-79
2021/12/28 06:28:28;;;;;;;;;;;8.40;99.90;;;;;;5036365;28;19916;-81
2021/12/28 06:30:54;;;;;;;;;;;8.40;99.90;;;;;;5038545;28;19917;-81
2021/12/28 06:33:20;;;;;;;;;;;8.40;99.90;;;;;;5054086;28;19913;-79
2021/12/28 06:35:46;;;;;;;;;;;8.40;99.90;;;;;;5072185;28;19962;-80
2021/12/28 06:38:11;;;;;;;;;;;8.50;99.90;;;;;;5073948;28;19963;-81
2021/12/28 06:40:37;;;;;;;;;;;8.50;99.90;;;;;;5074096;28;19913;-78
2021/12/28 06:43:02;;;;;;;;;;;8.40;99.90;;;;;;5058236;28;20303;-79
2021/12/28 06:45:28;;;;;;;;;;;8.50;99.90;;;;;;5057029;28;19921;-81
2021/12/28 06:47:54;;;;;;;;;;;8.40;99.90;;;;;;5073859;28;19916;-81
2021/12/28 06:50:19;;;;;;;;;;;8.40;99.90;;;;;;5058347;28;19909;-80
2021/12/28 06:52:45;;;;;;;;;;;8.40;99.90;;;;;;5073787;28;20292;-79
2021/12/28 06:55:11;;;;;;;;;;;8.50;99.90;;;;;;5073605;28;20334;-80
2021/12/28 06:57:37;;;;;;;;;;;8.50;99.90;;;;;;5057913;28;19916;-78
2021/12/28 07:00:05;;;;;;;;;;;8.50;99.90;;;;;;5056997;28;19959;-82
2021/12/28 07:02:31;;;;;;;;;;;8.50;99.90;;;;;;5073565;28;19920;-79
2021/12/28 07:04:57;;;;;;;;;;;8.40;99.90;;;;;;5073440;28;19909;-79
2021/12/28 07:07:22;;;;;;;;;;;8.40;99.90;;;;;;5073600;28;19915;-79
2021/12/28 07:09:48;;;;;;;;;;;8.40;99.90;;;;;;5057668;28;20007;-79
2021/12/28 07:12:13;;;;;;;;;;;8.40;99.90;;;;;;5042454;28;19912;-78
2021/12/28 07:14:39;;;;;;;;;;;8.40;99.90;;;;;;5052483;28;20291;-79
2021/12/28 07:17:05;;;;;;;;;;;8.40;99.90;;;;;;5037076;28;20220;-80
2021/12/28 07:19:30;;;;;;;;;;;8.40;99.90;;;;;;5042402;28;19917;-79
2021/12/28 07:21:56;;;;;;;;;;;8.50;99.90;;;;;;5037464;28;19928;-80
2021/12/28 07:24:21;;;;;;;;;;;8.50;99.90;;;;;;5037355;28;20292;-78
2021/12/28 07:26:47;;;;;;;;;;;8.50;99.90;;;;;;5036552;28;19909;-77
2021/12/28 07:29:13;;;;;;;;;;;8.50;99.90;;;;;;5036850;28;19913;-80
2021/12/28 07:31:39;;;;;;;;;;;8.50;99.90;;;;;;5036413;28;19919;-81
2021/12/28 07:34:05;;;;;;;;;;;8.50;99.90;;;;;;5041352;28;19912;-82
2021/12/28 07:36:30;;;;;;;;;;;8.50;99.90;;;;;;5057499;28;19909;-82
2021/12/28 07:38:56;;;;;;;;;;;8.50;99.90;;;;;;5057027;28;19920;-81
2021/12/28 07:47:13;;;;;;;;;;;8.50;99.90;;;;;;5000791;28;19971;-79
2021/12/28 07:49:39;;;;;;;;;;;8.60;99.90;;;;;;5055349;28;19917;-82
2021/12/28 07:52:05;;;;;;;;;;;8.60;99.90;;;;;;5055100;28;19913;-80
2021/12/28 07:54:31;;;;;;;;;;;8.60;99.90;;;;;;5038434;28;20334;-80
2021/12/28 07:56:56;;;;;;;;;;;8.60;99.90;;;;;;5054815;28;20344;-80
2021/12/28 07:59:22;;;;;;;;;;;8.60;99.90;;;;;;5055020;28;19909;-79
2021/12/28 08:01:47;;;;;;;;;;;8.60;99.90;;;;;;5038046;28;19955;-81
2021/12/28 08:04:13;;;;;;;;;;;8.70;99.90;;;;;;5055063;28;19916;-81
2021/12/28 08:06:39;;;;;;;;;;;8.60;99.90;;;;;;5037958;28;20372;-81
2021/12/28 08:09:05;;;;;;;;;;;8.70;99.90;;;;;;5054952;28;20395;-77
2021/12/28 08:11:30;;;;;;;;;;;8.70;99.90;;;;;;5054793;28;20296;-80
2021/12/28 08:13:56;;;;;;;;;;;8.70;99.90;;;;;;5054672;28;19962;-81
2021/12/28 08:16:22;;;;;;;;;;;8.70;99.90;;;;;;5054535;28;19909;-80
2021/12/28 08:18:47;;;;;;;;;;;8.70;99.90;;;;;;5037409;28;20310;-82
2021/12/28 08:21:13;;;;;;;;;;;8.70;99.90;;;;;;5045312;28;20003;-81
2021/12/28 08:23:38;;;;;;;;;;;8.80;99.90;;;;;;5048275;28;20308;-80
2021/12/28 08:26:04;;;;;;;;;;;8.80;99.90;;;;;;5033572;28;20309;-77
2021/12/28 08:28:30;;;;;;;;;;;8.80;99.90;;;;;;5046941;28;19978;-80
2021/12/28 08:30:56;;;;;;;;;;;8.90;99.90;;;;;;5064632;28;19913;-80
2021/12/28 08:33:22;;;;;;;;;;;8.90;99.90;;;;;;5075626;28;19908;-81
2021/12/28 08:35:48;;;;;;;;;;;8.90;99.90;;;;;;5075307;28;19909;-83
2021/12/28 08:38:14;;;;;;;;;;;8.90;99.90;;;;;;5075485;28;20178;-79
2021/12/28 08:40:40;;;;;;;;;;;8.90;99.90;;;;;;5085201;28;19908;-80
2021/12/28 08:43:06;;;;;;;;;;;8.90;99.90;;;;;;5089903;28;20303;-78
2021/12/28 08:45:33;;;;;;;;;;;8.90;99.90;;;;;;5058350;28;19915;-81
2021/12/28 08:47:58;;;;;;;;;;;8.90;99.90;;;;;;5060412;28;19988;-75
2021/12/28 08:50:24;;;;;;;;;;;9.00;99.90;;;;;;5059499;28;19912;-76
2021/12/28 08:52:50;;;;;;;;;;;8.90;99.90;;;;;;5082002;28;19916;-82
2021/12/28 08:55:16;;;;;;;;;;;9.00;99.90;;;;;;5067657;28;19923;-81
2021/12/28 08:57:42;;;;;;;;;;;9.00;99.90;;;;;;5020199;28;19924;-82
2021/12/28 09:00:10;;;;;;;;;;;9.00;99.90;;;;;;5060006;28;19909;-82
2021/12/28 09:02:35;;;;;;;;;;;9.00;99.90;;;;;;5087850;28;19969;-81
2021/12/28 09:05:01;;;;;;;;;;;9.00;99.90;;;;;;5049260;28;20343;-76
2021/12/28 09:07:27;;;;;;;;;;;9.00;99.90;;;;;;5059640;28;19912;-81
2021/12/28 09:09:52;;;;;;;;;;;9.00;99.90;;;;;;5094830;28;19908;-81
2021/12/28 09:12:18;;;;;;;;;;;9.00;99.90;;;;;;5067274;28;19913;-82
2021/12/28 09:14:44;;;;;;;;;;;9.00;99.90;;;;;;5095225;28;19913;-83
2021/12/28 09:17:09;;;;;;;;;;;9.00;99.90;;;;;;5077362;28;20280;-83
2021/12/28 09:19:35;;;;;;;;;;;9.00;99.90;;;;;;5074302;28;19916;-81
2021/12/28 09:22:01;;;;;;;;;;;9.10;99.90;;;;;;5076350;28;20037;-76
2021/12/28 09:24:26;;;;;;;;;;;9.10;99.90;;;;;;5092911;28;19916;-81
2021/12/28 09:26:52;;;;;;;;;;;9.10;99.90;;;;;;5094981;28;20006;-76
2021/12/28 09:29:18;;;;;;;;;;;9.10;99.90;;;;;;5092928;28;19916;-82
2021/12/28 09:31:43;;;;;;;;;;;9.10;99.90;;;;;;5094921;28;20234;-82
2021/12/28 09:34:09;;;;;;;;;;;9.10;99.90;;;;;;5064276;28;19915;-82
2021/12/28 09:36:35;;;;;;;;;;;9.10;99.90;;;;;;5077579;28;19908;-83
2021/12/28 09:39:01;;;;;;;;;;;9.10;99.90;;;;;;5073307;28;19909;-83
2021/12/28 09:41:27;;;;;;;;;;;9.10;99.90;;;;;;5054115;28;19913;-84
2021/12/28 09:43:52;;;;;;;;;;;9.10;99.90;;;;;;5088140;28;20015;-81
2021/12/28 09:46:18;;;;;;;;;;;9.10;99.90;;;;;;5083475;28;19928;-84
2021/12/28 09:48:43;;;;;;;;;;;9.20;99.90;;;;;;5055143;28;19951;-92
2021/12/28 09:51:09;;;;;;;;;;;9.20;99.90;;;;;;5034047;28;19917;-83
2021/12/28 09:53:37;;;;;;;;;;;9.20;99.90;;;;;;5065408;28;20007;-78
2021/12/28 09:56:03;;;;;;;;;;;9.20;99.90;;;;;;5060243;28;19912;-83
2021/12/28 09:58:32;;;;;;;;;;;9.30;99.90;;;;;;5050469;28;19909;-86
2021/12/28 10:00:57;;;;;;;;;;;9.20;99.90;;;;;;5070934;28;19909;-82
2021/12/28 10:03:23;;;;;;;;;;;9.20;99.90;;;;;;5089235;28;19962;-87
2021/12/28 10:05:49;;;;;;;;;;;9.30;99.90;;;;;;5090196;28;19937;-88
2021/12/28 10:08:14;;;;;;;;;;;9.30;99.90;;;;;;5081285;28;20310;-80
2021/12/28 10:10:41;;;;;;;;;;;9.30;99.90;;;;;;5070392;28;20296;-83
2021/12/28 10:13:08;;;;;;;;;;;9.30;99.90;;;;;;5058912;28;19999;-82
2021/12/28 10:15:36;;;;;;;;;;;9.30;99.90;;;;;;5080523;28;20323;-80
2021/12/28 10:18:03;;;;;;;;;;;9.30;99.90;;;;;;5091361;28;19937;-85
2021/12/28 10:20:33;;;;;;;;;;;9.30;99.90;;;;;;5084734;28;19916;-85
2021/12/28 10:23:02;;;;;;;;;;;9.30;99.90;;;;;;5089219;28;19924;-85
2021/12/28 10:25:29;;;;;;;;;;;9.30;99.90;;;;;;5072064;28;20368;-85
2021/12/28 10:27:57;;;;;;;;;;;9.30;99.90;;;;;;5079057;28;19940;-76
2021/12/28 10:30:27;;;;;;;;;;;9.30;99.90;;;;;;5058698;28;20086;-85
2021/12/28 10:32:57;;;;;;;;;;;9.30;99.90;;;;;;5099851;28;19946;-91
2021/12/28 10:35:25;;;;;;;;;;;9.30;99.90;;;;;;5099915;28;19912;-89
2021/12/28 10:37:53;;;;;;;;;;;9.30;99.90;;;;;;5081685;28;19915;-85
2021/12/28 10:40:24;;;;;;;;;;;9.30;99.90;;;;;;5081620;28;19935;-88
2021/12/28 10:42:53;;;;;;;;;;;9.30;99.90;;;;;;5099514;28;20002;-82
2021/12/28 10:45:18;;;;;;;;;;;9.40;99.90;;;;;;5081606;28;19919;-85
2021/12/28 10:47:44;;;;;;;;;;;9.40;99.90;;;;;;5081448;28;19924;-81
2021/12/28 10:50:37;;;;;;;;;;;9.40;99.90;;;;;;5081195;28;20018;-84
2021/12/28 10:53:10;;;;;;;;;;;9.40;99.90;;;;;;5077107;28;19961;-84
2021/12/28 10:55:37;;;;;;;;;;;9.40;99.90;;;;;;5099227;28;20333;-78
2021/12/28 10:58:03;;;;;;;;;;;9.40;99.90;;;;;;5099206;28;19947;-84
2021/12/28 11:00:42;;;;;;;;;;;9.40;99.90;;;;;;5080761;28;19923;-86
2021/12/28 11:03:17;;;;;;;;;;;9.40;99.90;;;;;;5080697;28;20270;-86
2021/12/28 11:05:47;;;;;;;;;;;9.40;99.90;;;;;;5098760;28;19908;-84
2021/12/28 11:08:13;;;;;;;;;;;9.50;99.90;;;;;;5098883;28;19999;-83
2021/12/28 11:10:41;;;;;;;;;;;9.50;99.90;;;;;;5080532;28;19908;-83
2021/12/28 11:13:07;;;;;;;;;;;9.50;99.90;;;;;;5098343;28;19912;-84
2021/12/28 11:15:37;;;;;;;;;;;9.50;99.90;;;;;;5097785;28;19908;-84
2021/12/28 11:18:16;;;;;;;;;;;9.40;99.90;;;;;;5080648;28;19908;-84
2021/12/28 11:20:43;;;;;;;;;;;9.40;99.90;;;;;;5080925;28;20223;-83
2021/12/28 11:23:28;;;;;;;;;;;9.30;99.90;;;;;;5098641;28;20006;-83
2021/12/28 11:26:05;;;;;;;;;;;9.30;99.90;;;;;;5098458;28;20293;-83
2021/12/28 11:28:31;;;;;;;;;;;9.30;99.90;;;;;;5098147;28;19912;-82
2021/12/28 11:31:02;;;;;;;;;;;9.30;99.90;;;;;;5080257;28;19958;-82
2021/12/28 11:33:41;;;;;;;;;;;9.30;99.90;;;;;;5080142;28;19908;-82
2021/12/28 11:36:07;;;;;;;;;;;9.20;99.90;;;;;;5059932;28;19934;-82
2021/12/28 11:38:34;;;;;;;;;;;9.20;99.90;;;;;;5060095;28;19908;-84
2021/12/28 11:40:59;;;;;;;;;;;9.20;99.90;;;;;;5077779;28;20004;-84
2021/12/28 11:43:25;;;;;;;;;;;9.30;99.90;;;;;;5077731;28;19999;-82
2021/12/28 11:45:51;;;;;;;;;;;9.30;99.90;;;;;;5077506;28;20034;-82
2021/12/28 11:48:16;;;;;;;;;;;9.40;99.90;;;;;;5077798;28;19908;-85
2021/12/28 11:50:42;;;;;;;;;;;9.30;99.90;;;;;;5077860;28;19961;-85
2021/12/28 11:53:11;;;;;;;;;;;9.30;99.90;;;;;;5060387;28;19908;-84
2021/12/28 11:55:37;;;;;;;;;;;9.30;99.90;;;;;;5077513;28;20022;-85
2021/12/28 11:58:03;;;;;;;;;;;9.40;99.90;;;;;;5077847;28;19909;-84
2021/12/28 12:00:36;;;;;;;;;;;9.30;99.90;;;;;;5077530;28;19915;-87
2021/12/28 12:03:02;;;;;;;;;;;9.30;99.90;;;;;;5077543;28;19916;-87
2021/12/28 12:05:29;;;;;;;;;;;9.30;99.90;;;;;;5076443;28;19909;-83
2021/12/28 12:08:08;;;;;;;;;;;9.30;99.90;;;;;;5059842;28;19920;-81
2021/12/28 12:10:35;;;;;;;;;;;9.30;99.90;;;;;;5076246;28;20326;-84
2021/12/28 12:13:06;;;;;;;;;;;9.30;99.90;;;;;;5077227;28;19912;-76
2021/12/28 12:15:39;;;;;;;;;;;9.20;99.90;;;;;;5075526;28;19912;-79
2021/12/28 12:18:07;;;;;;;;;;;9.20;99.90;;;;;;5077090;28;19919;-78
2021/12/28 12:20:34;;;;;;;;;;;9.20;99.90;;;;;;5076829;28;20346;-78
2021/12/28 12:23:08;;;;;;;;;;;9.20;99.90;;;;;;5059349;28;19999;-85
2021/12/28 12:25:47;;;;;;;;;;;9.20;99.90;;;;;;5076543;28;19991;-77
2021/12/28 12:28:13;;;;;;;;;;;9.30;99.90;;;;;;5076544;28;19908;-82
2021/12/28 12:30:50;;;;;;;;;;;9.30;99.90;;;;;;5076898;28;20215;-83
2021/12/28 12:33:16;;;;;;;;;;;9.20;99.90;;;;;;5058830;28;19909;-80
2021/12/28 12:35:41;;;;;;;;;;;9.20;99.90;;;;;;5076320;28;19912;-78
2021/12/28 12:38:10;;;;;;;;;;;9.20;99.90;;;;;;5058827;28;19915;-84
2021/12/28 12:40:54;;;;;;;;;;;9.10;99.90;;;;;;5076679;28;19915;-83
2021/12/28 12:43:24;;;;;;;;;;;9.10;99.90;;;;;;5076887;28;20269;-85
2021/12/28 12:45:50;;;;;;;;;;;9.10;99.90;;;;;;5058832;28;19920;-81
2021/12/28 12:48:32;;;;;;;;;;;9.00;99.90;;;;;;5076984;28;20242;-84
2021/12/28 12:51:16;;;;;;;;;;;9.00;99.90;;;;;;5058885;28;19956;-85
2021/12/28 12:53:43;;;;;;;;;;;9.00;99.90;;;;;;5076567;28;19909;-84
2021/12/28 12:56:12;;;;;;;;;;;9.00;99.90;;;;;;5059202;28;19909;-85
2021/12/28 12:58:39;;;;;;;;;;;8.90;99.90;;;;;;5058872;28;19912;-83
2021/12/28 13:01:04;;;;;;;;;;;8.90;99.90;;;;;;5076295;28;20003;-82
2021/12/28 13:03:33;;;;;;;;;;;8.90;99.90;;;;;;5076151;28;20363;-84
2021/12/28 13:06:00;;;;;;;;;;;8.80;99.90;;;;;;5076226;28;19908;-85
2021/12/28 13:08:25;;;;;;;;;;;8.80;99.90;;;;;;5058579;28;19962;-84
2021/12/28 13:10:51;;;;;;;;;;;8.80;99.90;;;;;;5075985;28;19951;-82
2021/12/28 13:13:16;;;;;;;;;;;8.80;99.90;;;;;;5075920;28;20295;-82
2021/12/28 13:15:42;;;;;;;;;;;8.70;99.90;;;;;;5075932;28;19954;-81
2021/12/28 13:18:08;;;;;;;;;;;8.80;99.90;;;;;;5074908;28;20302;-83
2021/12/28 13:20:35;;;;;;;;;;;8.80;99.90;;;;;;5076147;28;19909;-82
2021/12/28 13:23:05;;;;;;;;;;;8.80;99.90;;;;;;5058029;28;19912;-81
2021/12/28 13:25:32;;;;;;;;;;;8.80;99.90;;;;;;5075760;28;19919;-84
2021/12/28 13:27:59;;;;;;;;;;;8.90;99.90;;;;;;5058355;28;19913;-85
2021/12/28 13:30:26;;;;;;;;;;;8.90;99.90;;;;;;5057926;28;19931;-78
2021/12/28 13:32:53;;;;;;;;;;;8.90;99.90;;;;;;5075650;28;19958;-79
2021/12/28 13:35:26;;;;;;;;;;;8.90;99.90;;;;;;5074460;28;19913;-84
2021/12/28 13:37:57;;;;;;;;;;;9.10;99.90;;;;;;5075329;28;19908;-80
2021/12/28 13:40:28;;;;;;;;;;;9.10;99.90;;;;;;5057658;28;20250;-82
2021/12/28 13:43:00;;;;;;;;;;;9.10;99.90;;;;;;5057331;28;19971;-79
2021/12/28 13:45:41;;;;;;;;;;;9.10;99.90;;;;;;5057265;28;20027;-80
2021/12/28 13:48:26;;;;;;;;;;;9.10;99.90;;;;;;5075342;28;19916;-83
2021/12/28 13:50:55;;;;;;;;;;;9.20;99.90;;;;;;5074133;28;20223;-80
2021/12/28 13:53:22;;;;;;;;;;;9.20;99.90;;;;;;5057404;28;19923;-82
2021/12/28 13:55:50;;;;;;;;;;;9.10;99.90;;;;;;5057357;28;20212;-84
2021/12/28 13:58:36;;;;;;;;;;;9.10;99.90;;;;;;5057784;28;19913;-80
2021/12/28 14:01:22;;;;;;;;;;;9.20;99.90;;;;;;5075469;28;19909;-82
2021/12/28 14:03:55;;;;;;;;;;;9.20;99.90;;;;;;5057610;28;20011;-83
2021/12/28 14:06:20;;;;;;;;;;;9.10;99.90;;;;;;5075077;28;19908;-81
2021/12/28 14:08:46;;;;;;;;;;;9.10;99.90;;;;;;5075429;28;19909;-79
2021/12/28 14:11:12;;;;;;;;;;;9.00;99.90;;;;;;5075307;28;19909;-82
2021/12/28 14:13:40;;;;;;;;;;;9.00;99.90;;;;;;5075254;28;19909;-81
2021/12/28 14:16:11;;;;;;;;;;;8.90;99.90;;;;;;5057389;28;20207;-81
2021/12/28 14:18:43;;;;;;;;;;;8.90;99.90;;;;;;5075197;28;19983;-83
2021/12/28 14:21:21;;;;;;;;;;;8.80;99.90;;;;;;5075104;28;20308;-80
2021/12/28 14:24:05;;;;;;;;;;;8.80;99.90;;;;;;5057067;28;19908;-82
2021/12/28 14:26:32;;;;;;;;;;;8.80;99.90;;;;;;5056837;28;19913;-81
2021/12/28 14:29:00;;;;;;;;;;;8.70;99.90;;;;;;5057468;28;19908;-85
2021/12/28 14:31:35;;;;;;;;;;;8.70;99.90;;;;;;5075194;28;19909;-85
2021/12/28 14:34:01;;;;;;;;;;;8.70;99.90;;;;;;5075307;28;20292;-83
2021/12/28 14:36:31;;;;;;;;;;;8.60;99.90;;;;;;5057077;28;19912;-82
2021/12/28 14:39:06;;;;;;;;;;;8.60;99.90;;;;;;5057364;28;19924;-83
2021/12/28 14:41:31;;;;;;;;;;;8.60;99.90;;;;;;5057075;28;19916;-81